createdAt,value
2022-09-26T00:00:06.809Z,6.13
2022-09-26T00:02:39.960Z,6.47
2022-09-26T00:05:11.048Z,7.30
2022-09-26T00:07:38.819Z,5.70
2022-09-26T00:10:07.330Z,6.73
2022-09-26T00:12:35.063Z,5.70
2022-09-26T00:15:02.769Z,5.33
2022-09-26T00:17:32.351Z,5.30
2022-09-26T00:20:00.153Z,4.87
2022-09-26T00:22:27.889Z,5.30
2022-09-26T00:24:55.957Z,4.83
2022-09-26T00:27:24.004Z,4.57
2022-09-26T00:29:51.711Z,4.30
2022-09-26T00:32:19.839Z,4.07
2022-09-26T00:34:48.882Z,4.20
2022-09-26T00:37:17.003Z,4.53
2022-09-26T00:39:45.114Z,4.60
2022-09-26T00:42:13.941Z,3.90
2022-09-26T00:44:46.568Z,4.47
2022-09-26T00:47:21.148Z,4.13
2022-09-26T00:49:51.615Z,4.30
2022-09-26T00:52:21.089Z,4.50
2022-09-26T00:54:51.209Z,3.90
2022-09-26T00:57:20.421Z,4.10
2022-09-26T00:59:51.225Z,4.30
2022-09-26T01:02:19.383Z,4.20
2022-09-26T01:04:48.453Z,4.00
2022-09-26T01:07:19.042Z,4.30
2022-09-26T01:09:48.409Z,4.50
2022-09-26T01:12:16.770Z,3.93
2022-09-26T01:14:45.946Z,4.63
2022-09-26T01:17:14.775Z,4.20
2022-09-26T01:19:56.699Z,4.37
2022-09-26T01:22:42.579Z,3.67
2022-09-26T01:25:19.678Z,4.30
2022-09-26T01:28:03.287Z,4.33
2022-09-26T01:30:35.672Z,3.87
2022-09-26T01:33:14.502Z,4.30
2022-09-26T01:35:57.230Z,4.30
2022-09-26T01:38:30.320Z,3.83
2022-09-26T01:41:05.299Z,4.13
2022-09-26T01:43:35.297Z,3.70
2022-09-26T01:46:08.500Z,3.97
2022-09-26T01:48:40.960Z,4.37
2022-09-26T01:51:10.375Z,3.57
2022-09-26T01:53:41.225Z,4.30
2022-09-26T01:56:11.693Z,4.47
2022-09-26T01:58:43.882Z,4.27
2022-09-26T02:01:13.996Z,4.60
2022-09-26T02:03:44.665Z,4.10
2022-09-26T02:06:15.387Z,4.20
2022-09-26T02:08:46.898Z,4.00
2022-09-26T02:11:15.786Z,4.00
2022-09-26T02:13:47.290Z,4.40
2022-09-26T02:16:19.536Z,4.63
2022-09-26T02:18:48.665Z,4.30
2022-09-26T02:21:20.227Z,4.10
2022-09-26T02:23:48.575Z,4.00
2022-09-26T02:26:16.410Z,3.90
2022-09-26T02:28:44.456Z,4.43
2022-09-26T02:31:20.475Z,4.53
2022-09-26T02:33:49.828Z,4.23
2022-09-26T02:36:18.155Z,4.50
2022-09-26T02:38:46.165Z,4.00
2022-09-26T02:41:35.768Z,4.30
2022-09-26T02:44:12.810Z,3.97
2022-09-26T02:46:51.343Z,4.07
2022-09-26T02:49:29.858Z,3.87
2022-09-26T02:52:03.641Z,4.03
2022-09-26T02:54:37.041Z,4.50
2022-09-26T02:57:11.583Z,4.50
2022-09-26T02:59:47.407Z,5.07
2022-09-26T03:02:18.007Z,4.53
2022-09-26T03:05:01.833Z,4.80
2022-09-26T03:07:31.824Z,4.60
2022-09-26T03:10:01.595Z,5.07
2022-09-26T03:12:30.909Z,4.87
2022-09-26T03:14:59.572Z,4.73
2022-09-26T03:17:28.402Z,4.93
2022-09-26T03:19:58.830Z,4.93
2022-09-26T03:22:28.099Z,4.50
2022-09-26T03:24:59.231Z,4.47
2022-09-26T03:27:27.046Z,4.97
2022-09-26T03:29:55.810Z,4.20
2022-09-26T03:32:25.215Z,4.13
2022-09-26T03:34:53.019Z,4.03
2022-09-26T03:37:20.826Z,4.37
2022-09-26T03:39:49.744Z,4.90
2022-09-26T03:42:25.632Z,4.50
2022-09-26T03:44:55.248Z,5.00
2022-09-26T03:47:29.339Z,4.43
2022-09-26T03:49:57.853Z,4.80
2022-09-26T03:52:25.812Z,4.57
2022-09-26T03:54:54.996Z,4.70
2022-09-26T03:57:22.700Z,4.47
2022-09-26T03:59:56.139Z,4.80
2022-09-26T04:02:26.276Z,4.10
2022-09-26T04:05:09.683Z,4.37
2022-09-26T04:07:37.517Z,4.63
2022-09-26T04:10:07.210Z,4.90
2022-09-26T04:12:35.875Z,5.17
2022-09-26T04:15:03.437Z,4.77
2022-09-26T04:17:33.066Z,4.83
2022-09-26T04:20:02.201Z,5.03
2022-09-26T04:22:29.795Z,5.10
2022-09-26T04:24:58.066Z,5.20
2022-09-26T04:27:28.937Z,4.97
2022-09-26T04:29:58.120Z,4.80
2022-09-26T04:32:38.358Z,5.80
2022-09-26T04:35:27.250Z,5.20
2022-09-26T04:37:55.133Z,5.70
2022-09-26T04:40:22.751Z,5.60
2022-09-26T04:43:04.664Z,6.00
2022-09-26T04:45:32.352Z,6.13
2022-09-26T04:47:59.990Z,5.73
2022-09-26T04:50:28.892Z,6.87
2022-09-26T04:53:06.312Z,6.77
2022-09-26T04:55:37.836Z,6.30
2022-09-26T04:58:06.872Z,6.40
2022-09-26T05:00:45.811Z,6.40
2022-09-26T05:03:16.137Z,6.97
2022-09-26T05:05:45.485Z,6.27
2022-09-26T05:08:13.958Z,7.10
2022-09-26T05:10:41.801Z,6.67
2022-09-26T05:13:11.028Z,7.47
2022-09-26T05:15:40.071Z,6.63
2022-09-26T05:18:09.454Z,6.73
2022-09-26T05:20:38.442Z,7.03
2022-09-26T05:23:07.654Z,7.10
2022-09-26T05:25:55.634Z,6.40
2022-09-26T05:28:25.762Z,6.63
2022-09-26T05:30:54.624Z,6.50
2022-09-26T05:33:23.204Z,6.40
2022-09-26T05:35:54.089Z,6.90
2022-09-26T05:38:23.063Z,6.80
2022-09-26T05:40:59.340Z,6.90
2022-09-26T05:43:30.878Z,7.20
2022-09-26T05:45:58.645Z,6.70
2022-09-26T05:48:29.757Z,7.20
2022-09-26T05:50:57.841Z,6.53
2022-09-26T05:53:25.830Z,6.57
2022-09-26T05:55:54.401Z,6.00
2022-09-26T05:58:32.350Z,6.73
2022-09-26T06:01:20.214Z,6.00
2022-09-26T06:04:03.044Z,6.40
2022-09-26T06:06:31.319Z,6.10
2022-09-26T06:09:09.406Z,7.33
2022-09-26T06:12:06.489Z,6.33
2022-09-26T06:14:35.416Z,6.50
2022-09-26T06:17:03.118Z,5.23
2022-09-26T06:19:31.093Z,6.63
2022-09-26T06:21:58.931Z,5.90
2022-09-26T06:24:26.560Z,6.73
2022-09-26T06:26:58.790Z,6.80
2022-09-26T06:29:26.336Z,6.83
2022-09-26T06:31:55.792Z,8.17
2022-09-26T06:34:26.557Z,7.43
2022-09-26T06:37:09.529Z,7.43
2022-09-26T06:39:38.488Z,9.57
2022-09-26T06:42:22.427Z,8.43
2022-09-26T06:44:56.292Z,8.50
2022-09-26T06:47:25.206Z,7.10
2022-09-26T06:50:22.351Z,7.93
2022-09-26T06:52:53.681Z,6.97
2022-09-26T06:55:23.424Z,6.27
2022-09-26T06:57:50.979Z,6.40
2022-09-26T07:00:19.466Z,7.27
2022-09-26T07:03:18.004Z,6.40
2022-09-26T07:05:49.552Z,7.37
2022-09-26T07:08:18.118Z,7.40
2022-09-26T07:10:47.064Z,6.43
2022-09-26T07:13:22.174Z,6.70
2022-09-26T07:15:50.801Z,5.40
2022-09-26T07:18:32.880Z,6.40
2022-09-26T07:21:05.251Z,6.13
2022-09-26T07:23:51.498Z,5.70
2022-09-26T07:26:21.416Z,5.90
2022-09-26T07:28:54.291Z,5.07
2022-09-26T07:31:23.799Z,5.90
2022-09-26T07:34:08.753Z,4.90
2022-09-26T07:36:39.849Z,5.57
2022-09-26T07:39:08.736Z,5.50
2022-09-26T07:41:36.546Z,5.00
2022-09-26T07:44:58.898Z,5.70
2022-09-26T07:47:10.510Z,5.33
2022-09-26T07:49:57.386Z,4.50
2022-09-26T07:52:48.872Z,4.60
2022-09-26T07:55:25.551Z,4.10
2022-09-26T07:58:07.001Z,4.07
2022-09-26T08:00:56.815Z,4.17
2022-09-26T08:03:45.319Z,4.00
2022-09-26T08:06:24.581Z,4.40
2022-09-26T08:08:53.823Z,3.90
2022-09-26T08:11:41.752Z,3.73
2022-09-26T08:14:36.160Z,3.60
2022-09-26T08:17:15.208Z,4.87
2022-09-26T08:19:43.158Z,4.03
2022-09-26T08:22:11.974Z,3.93
2022-09-26T08:24:39.932Z,4.10
2022-09-26T08:27:23.065Z,3.23
2022-09-26T08:29:50.971Z,3.40
2022-09-26T08:32:19.458Z,3.50
2022-09-26T08:34:47.610Z,3.57
2022-09-26T08:37:52.020Z,4.03
2022-09-26T08:40:44.699Z,3.73
2022-09-26T08:43:42.652Z,3.20
2022-09-26T08:46:48.704Z,3.90
2022-09-26T08:49:44.131Z,3.70
2022-09-26T08:52:22.232Z,3.20
2022-09-26T08:54:52.554Z,2.63
2022-09-26T08:57:24.917Z,3.23
2022-09-26T08:59:54.522Z,3.23
2022-09-26T09:02:24.771Z,2.60
2022-09-26T09:05:02.255Z,3.00
2022-09-26T09:07:32.004Z,3.40
2022-09-26T09:10:04.085Z,2.67
2022-09-26T09:12:54.790Z,2.50
2022-09-26T09:15:47.251Z,3.03
2022-09-26T09:18:30.749Z,3.70
2022-09-26T09:21:23.257Z,3.77
2022-09-26T09:24:18.852Z,1.80
2022-09-26T09:29:49.849Z,3.23
2022-09-26T09:32:42.061Z,2.60
2022-09-26T09:35:18.891Z,2.07
2022-09-26T09:38:15.194Z,1.93
2022-09-26T09:41:11.951Z,1.70
2022-09-26T09:43:43.630Z,1.80
2022-09-26T09:46:15.103Z,1.60
2022-09-26T09:48:43.791Z,1.40
2022-09-26T09:51:20.590Z,2.43
2022-09-26T09:53:57.993Z,1.60
2022-09-26T09:56:31.014Z,1.50
2022-09-26T09:59:05.392Z,2.13
2022-09-26T10:01:48.176Z,1.83
2022-09-26T10:04:23.195Z,2.07
2022-09-26T10:06:52.677Z,1.70
2022-09-26T10:09:35.745Z,1.80
2022-09-26T10:12:29.672Z,1.70
2022-09-26T10:15:20.622Z,1.63
2022-09-26T10:18:24.061Z,1.27
2022-09-26T10:21:13.122Z,1.40
2022-09-26T10:23:44.342Z,1.37
2022-09-26T10:26:27.743Z,1.40
2022-09-26T10:29:00.700Z,1.03
2022-09-26T10:31:31.342Z,1.47
2022-09-26T10:34:28.991Z,1.20
2022-09-26T10:36:57.079Z,1.13
2022-09-26T10:39:47.935Z,1.63
2022-09-26T10:42:16.769Z,1.60
2022-09-26T10:44:45.992Z,1.53
2022-09-26T10:47:25.898Z,1.80
2022-09-26T10:50:33.278Z,2.27
2022-09-26T10:53:36.384Z,1.80
2022-09-26T10:56:07.400Z,1.70
2022-09-26T10:58:40.151Z,1.70
2022-09-26T11:01:20.563Z,1.50
2022-09-26T11:03:51.005Z,1.70
2022-09-26T11:06:25.503Z,1.63
2022-09-26T11:08:58.430Z,2.50
2022-09-26T11:11:48.073Z,2.10
2022-09-26T11:14:28.087Z,2.30
2022-09-26T11:17:10.511Z,3.07
2022-09-26T11:19:45.774Z,2.00
2022-09-26T11:22:18.724Z,2.03
2022-09-26T11:24:52.732Z,3.10
2022-09-26T11:27:27.231Z,3.03
2022-09-26T11:30:17.586Z,3.60
2022-09-26T11:32:54.400Z,1.97
2022-09-26T11:35:47.340Z,1.63
2022-09-26T11:38:23.816Z,1.67
2022-09-26T11:41:08.265Z,1.40
2022-09-26T11:43:41.349Z,2.00
2022-09-26T11:46:21.247Z,1.67
2022-09-26T11:49:13.466Z,4.40
2022-09-26T11:52:14.679Z,1.97
2022-09-26T11:54:51.131Z,2.60
2022-09-26T11:57:29.239Z,3.67
2022-09-26T12:00:02.654Z,2.73
2022-09-26T12:02:47.465Z,2.70
2022-09-26T12:05:28.291Z,2.53
2022-09-26T12:08:13.632Z,2.50
2022-09-26T12:10:46.530Z,2.37
2022-09-26T12:13:21.605Z,2.50
2022-09-26T12:15:55.949Z,2.50
2022-09-26T12:18:29.817Z,2.00
2022-09-26T12:21:05.522Z,1.90
2022-09-26T12:23:37.832Z,1.90
2022-09-26T12:26:10.217Z,1.80
2022-09-26T12:28:59.119Z,1.87
2022-09-26T12:31:33.633Z,1.90
2022-09-26T12:34:08.440Z,3.10
2022-09-26T12:36:47.555Z,1.73
2022-09-26T12:39:26.335Z,3.17
2022-09-26T12:42:02.240Z,2.00
2022-09-26T12:44:38.706Z,2.07
2022-09-26T12:47:27.720Z,1.80
2022-09-26T12:50:13.147Z,2.20
2022-09-26T12:52:51.093Z,2.10
2022-09-26T12:55:28.030Z,2.17
2022-09-26T12:58:03.448Z,1.47
2022-09-26T13:00:36.180Z,1.40
2022-09-26T13:03:18.895Z,2.20
2022-09-26T13:06:14.042Z,1.73
2022-09-26T13:08:47.199Z,2.13
2022-09-26T13:11:20.575Z,1.90
2022-09-26T13:14:06.091Z,1.70
2022-09-26T13:16:39.394Z,1.73
2022-09-26T13:19:23.879Z,1.83
2022-09-26T13:21:54.361Z,2.20
2022-09-26T13:24:24.721Z,2.77
2022-09-26T13:27:00.587Z,2.30
2022-09-26T13:29:30.398Z,2.03
2022-09-26T13:32:11.067Z,2.00
2022-09-26T13:34:41.240Z,2.43
2022-09-26T13:37:11.788Z,1.90
2022-09-26T13:39:43.058Z,1.90
2022-09-26T13:42:14.918Z,2.00
2022-09-26T13:44:57.466Z,1.50
2022-09-26T13:47:31.526Z,2.10
2022-09-26T13:50:04.402Z,2.37
2022-09-26T13:52:39.762Z,2.40
2022-09-26T13:55:12.837Z,1.50
2022-09-26T13:57:46.858Z,1.60
2022-09-26T14:00:38.960Z,1.83
2022-09-26T14:03:22.136Z,2.37
2022-09-26T14:05:51.117Z,1.63
2022-09-26T14:08:46.310Z,2.47
2022-09-26T14:11:24.439Z,1.90
2022-09-26T14:14:06.848Z,1.97
2022-09-26T14:16:36.799Z,1.97
2022-09-26T14:19:07.122Z,2.00
2022-09-26T14:21:37.028Z,2.00
2022-09-26T14:24:27.991Z,2.37
2022-09-26T14:26:59.626Z,2.13
2022-09-26T14:29:35.133Z,2.50
2022-09-26T14:32:05.535Z,1.80
2022-09-26T14:34:36.607Z,2.10
2022-09-26T14:37:05.225Z,2.17
2022-09-26T14:39:38.803Z,1.70
2022-09-26T14:42:10.451Z,2.07
2022-09-26T14:44:39.121Z,2.60
2022-09-26T14:47:15.678Z,1.90
2022-09-26T14:49:44.145Z,2.10
2022-09-26T14:52:18.069Z,1.80
2022-09-26T14:54:46.147Z,1.93
2022-09-26T14:57:21.000Z,1.93
2022-09-26T14:59:49.550Z,2.37
2022-09-26T15:02:26.100Z,2.27
2022-09-26T15:05:01.307Z,2.63
2022-09-26T15:07:31.726Z,2.00
2022-09-26T15:10:00.273Z,2.80
2022-09-26T15:12:32.003Z,1.97
2022-09-26T15:15:10.342Z,2.13
2022-09-26T15:17:40.674Z,2.67
2022-09-26T15:20:10.013Z,1.87
2022-09-26T15:22:38.936Z,2.40
2022-09-26T15:25:10.662Z,2.07
2022-09-26T15:27:41.622Z,2.00
2022-09-26T15:30:16.959Z,2.43
2022-09-26T15:32:49.044Z,2.00
2022-09-26T15:38:11.179Z,1.97
2022-09-26T15:40:39.235Z,2.83
2022-09-26T15:43:07.922Z,2.50
2022-09-26T15:45:58.401Z,4.53
2022-09-26T15:48:29.000Z,2.20
2022-09-26T15:50:59.797Z,2.37
2022-09-26T15:53:29.544Z,2.77
2022-09-26T15:55:58.760Z,2.67
2022-09-26T15:58:31.362Z,2.60
2022-09-26T16:00:59.468Z,3.13
2022-09-26T16:03:45.989Z,3.10
2022-09-26T16:06:27.734Z,2.60
2022-09-26T16:08:58.885Z,3.17
2022-09-26T16:11:26.743Z,2.57
2022-09-26T16:13:56.431Z,2.40
2022-09-26T16:16:26.942Z,2.17
2022-09-26T16:18:57.130Z,2.80
2022-09-26T16:21:25.918Z,2.07
2022-09-26T16:23:54.735Z,2.33
2022-09-26T16:26:24.103Z,3.27
2022-09-26T16:28:53.639Z,5.37
2022-09-26T16:31:32.741Z,3.03
2022-09-26T16:34:02.457Z,3.63
2022-09-26T16:36:32.748Z,5.10
2022-09-26T16:39:01.510Z,3.43
2022-09-26T16:41:59.417Z,3.40
2022-09-26T16:44:27.491Z,4.80
2022-09-26T16:46:59.076Z,4.43
2022-09-26T16:49:46.017Z,4.53
2022-09-26T16:52:21.943Z,4.20
2022-09-26T16:54:50.371Z,5.50
2022-09-26T16:57:19.813Z,4.77
2022-09-26T16:59:47.629Z,4.30
2022-09-26T17:02:15.365Z,3.90
2022-09-26T17:04:50.077Z,4.20
2022-09-26T17:07:17.747Z,4.10
2022-09-26T17:09:45.327Z,5.10
2022-09-26T17:12:18.331Z,4.97
2022-09-26T17:14:48.040Z,5.97
2022-09-26T17:17:21.809Z,5.27
2022-09-26T17:19:56.826Z,4.53
2022-09-26T17:22:27.057Z,5.10
2022-09-26T17:24:54.898Z,5.57
2022-09-26T17:27:25.682Z,5.27
2022-09-26T17:29:54.270Z,4.60
2022-09-26T17:32:28.064Z,5.50
2022-09-26T17:34:59.495Z,5.50
2022-09-26T17:37:27.695Z,4.67
2022-09-26T17:39:55.969Z,4.73
2022-09-26T17:42:25.669Z,5.37
2022-09-26T17:44:54.437Z,8.00
2022-09-26T17:47:23.083Z,5.03
2022-09-26T17:49:56.425Z,5.40
2022-09-26T17:52:28.789Z,5.37
2022-09-26T17:54:58.568Z,3.90
2022-09-26T17:57:29.965Z,5.03
2022-09-26T17:59:58.635Z,4.30
2022-09-26T18:02:30.533Z,4.77
2022-09-26T18:04:59.928Z,5.07
2022-09-26T18:07:31.861Z,5.10
2022-09-26T18:10:00.516Z,4.83
2022-09-26T18:12:28.192Z,4.17
2022-09-26T18:14:56.957Z,5.07
2022-09-26T18:17:24.835Z,4.97
2022-09-26T18:19:53.039Z,5.10
2022-09-26T18:22:23.098Z,4.10
2022-09-26T18:24:53.115Z,6.33
2022-09-26T18:27:22.135Z,6.70
2022-09-26T18:29:49.736Z,5.27
2022-09-26T18:32:22.187Z,5.07
2022-09-26T18:34:49.825Z,4.17
2022-09-26T18:37:18.121Z,4.70
2022-09-26T18:39:49.700Z,5.40
2022-09-26T18:42:22.522Z,4.70
2022-09-26T18:44:51.106Z,5.40
2022-09-26T18:47:18.795Z,5.17
2022-09-26T18:49:47.308Z,4.40
2022-09-26T18:52:16.307Z,3.23
2022-09-26T18:54:45.121Z,5.13
2022-09-26T18:57:36.196Z,3.80
2022-09-26T19:00:05.727Z,3.80
2022-09-26T19:02:35.774Z,3.90
2022-09-26T19:05:04.266Z,3.20
2022-09-26T19:07:33.407Z,3.53
2022-09-26T19:10:01.030Z,5.20
2022-09-26T19:12:28.719Z,4.17
2022-09-26T19:14:56.343Z,3.97
2022-09-26T19:17:25.236Z,3.00
2022-09-26T19:19:53.301Z,3.83
2022-09-26T19:22:21.020Z,4.83
2022-09-26T19:24:50.861Z,3.53
2022-09-26T19:27:20.159Z,3.50
2022-09-26T19:29:49.843Z,3.00
2022-09-26T19:32:19.327Z,3.63
2022-09-26T19:34:50.637Z,6.57
2022-09-26T19:37:18.317Z,4.17
2022-09-26T19:39:45.890Z,4.60
2022-09-26T19:42:14.390Z,5.60
2022-09-26T19:44:42.786Z,3.87
2022-09-26T19:47:14.843Z,4.30
2022-09-26T19:49:42.784Z,4.27
2022-09-26T19:52:16.096Z,3.63
2022-09-26T19:54:45.287Z,3.60
2022-09-26T19:57:15.688Z,4.20
2022-09-26T19:59:44.012Z,4.20
2022-09-26T20:02:14.225Z,3.70
2022-09-26T20:04:42.126Z,3.40
2022-09-26T20:07:11.818Z,3.70
2022-09-26T20:09:41.255Z,3.90
2022-09-26T20:12:09.289Z,4.60
2022-09-26T20:14:37.224Z,5.27
2022-09-26T20:17:20.967Z,7.37
2022-09-26T20:19:50.328Z,5.80
2022-09-26T20:22:20.004Z,4.80
2022-09-26T20:24:50.390Z,6.30
2022-09-26T20:27:19.564Z,4.73
2022-09-26T20:30:02.123Z,4.20
2022-09-26T20:32:30.204Z,4.10
2022-09-26T20:35:00.495Z,3.80
2022-09-26T20:37:29.223Z,6.77
2022-09-26T20:39:58.426Z,3.27
2022-09-26T20:42:35.067Z,4.30
2022-09-26T20:45:03.444Z,3.40
2022-09-26T20:47:31.217Z,4.27
2022-09-26T20:50:01.357Z,4.07
2022-09-26T20:52:30.331Z,4.03
2022-09-26T20:54:59.328Z,3.80
2022-09-26T20:57:27.492Z,3.10
2022-09-26T20:59:55.149Z,3.20
2022-09-26T21:02:30.060Z,3.50
2022-09-26T21:04:58.155Z,3.50
2022-09-26T21:07:25.787Z,3.30
2022-09-26T21:09:53.687Z,3.47
2022-09-26T21:12:22.613Z,3.27
2022-09-26T21:14:51.811Z,5.67
2022-09-26T21:17:20.909Z,3.87
2022-09-26T21:19:48.830Z,3.30
2022-09-26T21:22:36.807Z,4.40
2022-09-26T21:25:05.234Z,5.07
2022-09-26T21:27:34.240Z,4.03
2022-09-26T21:30:01.813Z,4.30
2022-09-26T21:32:29.577Z,4.30
2022-09-26T21:34:59.387Z,3.77
2022-09-26T21:37:26.976Z,3.83
2022-09-26T21:39:54.595Z,4.27
2022-09-26T21:42:22.807Z,3.90
2022-09-26T21:44:53.773Z,3.90
2022-09-26T21:47:22.109Z,3.60
2022-09-26T21:49:49.919Z,4.00
2022-09-26T21:52:19.503Z,3.50
2022-09-26T21:54:47.471Z,3.10
2022-09-26T21:57:17.286Z,3.63
2022-09-26T21:59:45.270Z,3.20
2022-09-26T22:02:14.884Z,3.37
2022-09-26T22:04:42.681Z,3.20
2022-09-26T22:07:10.460Z,3.20
2022-09-26T22:09:38.229Z,3.70
2022-09-26T22:12:05.972Z,5.40
2022-09-26T22:14:34.211Z,3.60
2022-09-26T22:17:01.842Z,2.83
2022-09-26T22:19:33.293Z,3.30
2022-09-26T22:22:01.636Z,3.50
2022-09-26T22:24:29.843Z,2.80
2022-09-26T22:26:57.820Z,3.30
2022-09-26T22:29:25.822Z,3.20
2022-09-26T22:31:53.564Z,2.67
2022-09-26T22:34:22.635Z,2.77
2022-09-26T22:36:51.751Z,2.80
2022-09-26T22:39:19.340Z,2.97
2022-09-26T22:41:47.201Z,2.97
2022-09-26T22:44:14.939Z,2.40
2022-09-26T22:46:42.568Z,2.37
2022-09-26T22:49:10.326Z,2.30
2022-09-26T22:51:38.463Z,2.43
2022-09-26T22:54:07.423Z,2.60
2022-09-26T22:56:35.276Z,3.10
2022-09-26T22:59:03.860Z,2.50
2022-09-26T23:01:31.580Z,2.60
2022-09-26T23:04:00.315Z,3.80
2022-09-26T23:06:29.622Z,2.87
2022-09-26T23:08:57.856Z,2.93
2022-09-26T23:11:29.522Z,2.70
2022-09-26T23:14:05.459Z,2.53
2022-09-26T23:16:34.876Z,2.60
2022-09-26T23:19:02.937Z,3.20
2022-09-26T23:21:30.931Z,2.83
2022-09-26T23:23:58.970Z,2.70
2022-09-26T23:26:28.713Z,2.63
2022-09-26T23:28:56.952Z,2.40
2022-09-26T23:31:25.874Z,2.50
2022-09-26T23:33:53.547Z,2.90
2022-09-26T23:36:21.448Z,2.70
2022-09-26T23:38:49.653Z,2.80
2022-09-26T23:41:17.344Z,2.40
2022-09-26T23:43:46.846Z,2.77
2022-09-26T23:46:15.018Z,3.37
2022-09-26T23:48:42.640Z,2.70
2022-09-26T23:51:10.645Z,2.53
2022-09-26T23:53:38.885Z,2.97
2022-09-26T23:56:07.304Z,2.80
2022-09-26T23:58:35.030Z,3.17
